Terminal Aerodrome Forecast
Issued by NWS

Home | Current Version | Previous Version | Text Only | Print | Product List | Glossary On
Versions: 1 2 3 4 5 6 7 8 9 10 11 12 13 14
000
FTUS43 KGRB 022116 AAA
TAFMTW
TAF AMD
KMTW 022116Z 0221/0318 03015G30KT P6SM SCT035
      TEMPO 0221/0223 1SM TSRAGR BR BKN015CB
     FM030200 34011G18KT P6SM SCT035
     FM030500 31007KT P6SM SCT035=

USA.gov is the U.S. government's official web portal to all federal, state and local government web resources and services.